createdAt,value
2019-06-08T00:04:00.103Z,95787.59
2019-06-08T00:06:35.597Z,95790.59
2019-06-08T00:45:57.366Z,95844.77
2019-06-08T00:48:33.055Z,95859.34
2019-06-08T00:51:04.261Z,95857.28
2019-06-08T00:53:38.028Z,95852.13
2019-06-08T00:56:11.398Z,95862.87
2019-06-08T00:58:43.383Z,95872.88
2019-06-08T01:01:22.067Z,95886.03
2019-06-08T01:03:52.377Z,95896.72
2019-06-08T01:06:29.828Z,95905.41
2019-06-08T01:09:04.765Z,95924.75
2019-06-08T01:11:37.296Z,95928.50
2019-06-08T01:28:02.122Z,96003.54
2019-06-08T01:30:34.876Z,96004.02
2019-06-08T01:33:06.687Z,96013.40
2019-06-08T01:35:40.262Z,96014.17
2019-06-08T01:38:13.700Z,96022.55
2019-06-08T01:40:47.485Z,96020.67
2019-06-08T01:43:21.855Z,96014.94
2019-06-08T01:45:57.421Z,96025.91
2019-06-08T01:48:32.328Z,96032.03
2019-06-08T01:51:08.162Z,96031.78
2019-06-08T01:53:40.654Z,96035.62
2019-06-08T01:56:12.678Z,96039.91
2019-06-08T01:58:44.581Z,96053.51
2019-06-08T02:01:17.125Z,96044.59
2019-06-08T02:03:49.990Z,96069.80
2019-06-08T02:06:24.199Z,96073.41
2019-06-08T02:09:00.543Z,96088.17
2019-06-08T02:11:33.061Z,96080.44
2019-06-08T02:14:05.615Z,96072.96
2019-06-08T02:16:37.533Z,96093.05
2019-06-08T02:19:10.632Z,96109.59
2019-06-08T02:21:42.687Z,96117.07
2019-06-08T02:24:15.874Z,96111.78
2019-06-08T02:26:48.881Z,96131.59
2019-06-08T02:29:21.853Z,96132.70
2019-06-08T02:31:54.908Z,96139.02
2019-06-08T02:34:28.301Z,96146.36
2019-06-08T02:37:02.846Z,96168.40
2019-06-08T02:39:35.533Z,96182.66
2019-06-08T02:42:08.903Z,96196.42
2019-06-08T02:44:41.767Z,96193.04
2019-06-08T02:47:16.296Z,96199.19
2019-06-08T02:49:47.103Z,96211.99
2019-06-08T02:52:19.956Z,96230.94
2019-06-08T02:54:55.073Z,96230.61
2019-06-08T02:57:30.998Z,96220.86
2019-06-08T03:00:04.673Z,96235.13
2019-06-08T03:02:40.653Z,96247.74
2019-06-08T03:05:14.486Z,96257.44
2019-06-08T03:07:48.101Z,96263.42
2019-06-08T03:10:22.815Z,96266.98
2019-06-08T03:12:56.891Z,96282.19
2019-06-08T03:15:32.407Z,96285.31
2019-06-08T03:18:06.279Z,96296.13
2019-06-08T03:20:40.148Z,96304.48
2019-06-08T03:23:12.066Z,96301.60
2019-06-08T03:25:52.641Z,96299.11
2019-06-08T03:28:20.214Z,96324.20
2019-06-08T03:30:55.832Z,96326.16
2019-06-08T03:33:28.164Z,96324.20
2019-06-08T03:36:02.212Z,96333.23
2019-06-08T03:38:37.503Z,96331.77
2019-06-08T03:41:10.351Z,96331.97
2019-06-08T03:43:43.228Z,96352.62
2019-06-08T03:46:17.351Z,96353.28
2019-06-08T03:48:50.210Z,96364.91
2019-06-08T03:51:24.160Z,96383.66
2019-06-08T03:53:58.267Z,96399.62
2019-06-08T03:56:29.488Z,96402.88
2019-06-08T03:59:02.513Z,96405.52
2019-06-08T04:01:37.441Z,96399.51
2019-06-08T04:04:11.112Z,96406.76
2019-06-08T04:06:45.600Z,96415.94
2019-06-08T04:09:17.350Z,96415.00
2019-06-08T04:11:51.220Z,96420.48
2019-06-08T04:14:25.434Z,96434.94
2019-06-08T04:16:58.432Z,96437.17
2019-06-08T04:19:30.377Z,96447.36
2019-06-08T04:22:02.202Z,96451.52
2019-06-08T04:24:35.222Z,96455.60
2019-06-08T04:27:09.306Z,96457.61
2019-06-08T04:29:43.869Z,96450.42
2019-06-08T04:32:15.407Z,96462.84
2019-06-08T04:34:48.018Z,96471.29
2019-06-08T04:37:20.334Z,96487.66
2019-06-08T04:39:54.752Z,96494.45
2019-06-08T04:42:26.404Z,96510.64
2019-06-08T04:45:00.554Z,96507.66
2019-06-08T04:47:33.628Z,96505.19
2019-06-08T04:50:21.623Z,96499.38
2019-06-08T04:52:40.838Z,96513.33
2019-06-08T04:55:15.301Z,96503.20
2019-06-08T04:57:48.810Z,96514.16
2019-06-08T05:00:22.630Z,96509.22
2019-06-08T05:02:54.614Z,96520.33
2019-06-08T05:05:26.508Z,96525.48
2019-06-08T05:07:58.525Z,96522.91
2019-06-08T05:10:33.508Z,96529.56
2019-06-08T05:13:07.561Z,96531.45
2019-06-08T05:15:43.315Z,96528.95
2019-06-08T05:18:14.716Z,96522.47
2019-06-08T05:20:49.123Z,96523.31
2019-06-08T05:23:22.616Z,96517.47
2019-06-08T05:25:55.721Z,96508.79
2019-06-08T05:28:28.825Z,96528.87
2019-06-08T05:31:00.696Z,96523.83
2019-06-08T05:33:36.534Z,96536.24
2019-06-08T05:36:09.898Z,96543.11
2019-06-08T05:38:43.912Z,96537.83
2019-06-08T05:41:19.398Z,96532.84
2019-06-08T05:43:51.833Z,96536.80
2019-06-08T05:46:27.486Z,96536.65
2019-06-08T05:49:01.092Z,96533.92
2019-06-08T05:51:32.737Z,96534.84
2019-06-08T05:54:06.962Z,96544.89
2019-06-08T05:56:39.878Z,96545.94
2019-06-08T05:59:12.953Z,96551.19
2019-06-08T06:01:46.767Z,96552.73
2019-06-08T06:04:20.813Z,96557.72
2019-06-08T06:06:53.083Z,96552.77
2019-06-08T06:09:24.760Z,96558.64
2019-06-08T06:11:56.934Z,96548.37
2019-06-08T06:14:29.020Z,96564.41
2019-06-08T06:17:02.956Z,96556.34
2019-06-08T06:19:35.124Z,96568.59
2019-06-08T06:22:07.941Z,96580.74
2019-06-08T06:24:43.735Z,96583.94
2019-06-08T06:27:16.129Z,96585.63
2019-06-08T06:29:49.959Z,96588.69
2019-06-08T06:32:25.632Z,96589.31
2019-06-08T06:34:59.107Z,96600.25
2019-06-08T06:37:31.289Z,96601.64
2019-06-08T06:40:04.480Z,96609.43
2019-06-08T06:42:37.249Z,96613.14
2019-06-08T06:45:10.136Z,96615.33
2019-06-08T06:47:42.362Z,96628.03
2019-06-08T06:50:15.121Z,96616.22
2019-06-08T06:52:49.074Z,96618.23
2019-06-08T06:55:25.311Z,96629.38
2019-06-08T06:57:56.066Z,96641.41
2019-06-08T07:00:32.378Z,96643.94
2019-06-08T07:03:05.487Z,96647.67
2019-06-08T07:05:38.333Z,96649.22
2019-06-08T07:08:10.183Z,96652.61
2019-06-08T07:10:44.599Z,96650.56
2019-06-08T07:13:17.348Z,96654.34
2019-06-08T07:15:54.522Z,96658.59
2019-06-08T07:18:26.205Z,96667.76
2019-06-08T07:20:59.860Z,96664.91
2019-06-08T07:23:34.021Z,96682.94
2019-06-08T07:26:05.408Z,96679.00
2019-06-08T07:28:40.572Z,96688.27
2019-06-08T07:31:13.582Z,96696.50
2019-06-08T07:33:46.798Z,96690.56
2019-06-08T07:36:20.463Z,96704.89
2019-06-08T07:38:53.932Z,96693.69
2019-06-08T07:41:28.361Z,96706.19
2019-06-08T07:44:03.993Z,96713.66
2019-06-08T07:46:39.653Z,96722.33
2019-06-08T07:49:11.903Z,96712.77
2019-06-08T07:51:58.815Z,96721.48
2019-06-08T07:54:22.522Z,96730.71
2019-06-08T07:56:57.050Z,96729.32
2019-06-08T07:59:29.448Z,96733.13
2019-06-08T08:02:02.906Z,96734.41
2019-06-08T08:04:35.734Z,96730.95
2019-06-08T08:07:08.727Z,96733.94
2019-06-08T08:09:42.181Z,96740.04
2019-06-08T08:12:15.344Z,96743.30
2019-06-08T08:14:51.312Z,96738.73
2019-06-08T08:17:23.388Z,96740.66
2019-06-08T08:20:02.164Z,96745.44
2019-06-08T08:22:39.436Z,96748.42
2019-06-08T08:25:19.787Z,96746.50
2019-06-08T08:27:55.862Z,96757.11
2019-06-08T08:30:31.345Z,96757.89
2019-06-08T08:33:03.653Z,96759.77
2019-06-08T08:35:38.756Z,96764.70
2019-06-08T08:38:18.174Z,96780.27
2019-06-08T08:40:53.420Z,96772.92
2019-06-08T08:43:28.132Z,96779.76
2019-06-08T08:46:01.794Z,96772.05
2019-06-08T08:48:34.858Z,96768.55
2019-06-08T08:51:08.544Z,96775.11
2019-06-08T08:53:41.183Z,96774.62
2019-06-08T08:56:18.178Z,96786.39
2019-06-08T08:58:52.543Z,96777.23
2019-06-08T09:01:28.755Z,96780.05
2019-06-08T09:04:05.008Z,96777.55
2019-06-08T09:06:39.275Z,96791.42
2019-06-08T09:09:12.076Z,96787.23
2019-06-08T09:11:48.336Z,96792.82
2019-06-08T09:14:18.996Z,96789.19
2019-06-08T09:16:53.744Z,96787.05
2019-06-08T09:19:27.940Z,96783.64
2019-06-08T09:25:27.885Z,96788.87
2019-06-08T09:28:04.632Z,96793.28
2019-06-08T09:30:38.470Z,96789.42
2019-06-08T09:33:14.931Z,96802.45
2019-06-08T09:35:53.575Z,96800.73
2019-06-08T09:38:28.798Z,96799.34
2019-06-08T09:41:05.307Z,96782.59
2019-06-08T09:43:39.177Z,96799.52
2019-06-08T09:46:12.081Z,96805.25
2019-06-08T09:48:44.157Z,96813.05
2019-06-08T09:51:18.736Z,96803.81
2019-06-08T09:53:54.243Z,96805.74
2019-06-08T09:56:30.089Z,96807.78
2019-06-08T09:59:08.373Z,96814.97
2019-06-08T10:01:38.730Z,96810.95
2019-06-08T10:04:12.713Z,96820.17
2019-06-08T10:06:47.947Z,96819.12
2019-06-08T10:09:23.808Z,96817.92
2019-06-08T10:12:01.291Z,96817.98
2019-06-08T10:14:32.183Z,96814.34
2019-06-08T10:17:08.702Z,96817.45
2019-06-08T10:19:40.433Z,96814.23
2019-06-08T10:22:13.165Z,96815.54
2019-06-08T10:24:48.832Z,96814.61
2019-06-08T10:27:21.161Z,96813.80
2019-06-08T10:29:53.091Z,96808.13
2019-06-08T10:32:28.231Z,96817.59
2019-06-08T10:35:07.312Z,96812.30
2019-06-08T10:37:39.333Z,96822.92
2019-06-08T10:40:13.555Z,96820.66
2019-06-08T10:42:48.434Z,96817.84
2019-06-08T10:45:23.327Z,96815.93
2019-06-08T10:47:59.343Z,96819.38
2019-06-08T10:50:33.196Z,96820.19
2019-06-08T10:53:10.341Z,96813.16
2019-06-08T10:55:40.827Z,96817.91
2019-06-08T10:58:14.446Z,96814.81
2019-06-08T11:00:48.114Z,96818.41
2019-06-08T11:03:21.201Z,96817.27
2019-06-08T11:05:54.592Z,96823.43
2019-06-08T11:08:27.593Z,96822.45
2019-06-08T11:11:01.195Z,96816.45
2019-06-08T11:13:33.584Z,96822.79
2019-06-08T11:16:06.591Z,96829.78
2019-06-08T11:18:38.335Z,96823.75
2019-06-08T11:21:48.216Z,96816.09
2019-06-08T11:24:24.802Z,96827.69
2019-06-08T11:26:57.802Z,96833.54
2019-06-08T11:29:31.894Z,96833.55
2019-06-08T11:32:04.283Z,96844.62
2019-06-08T11:34:38.081Z,96841.83
2019-06-08T11:37:13.574Z,96840.70
2019-06-08T11:39:49.051Z,96847.88
2019-06-08T11:42:24.910Z,96841.03
2019-06-08T11:44:58.664Z,96840.36
2019-06-08T11:47:30.975Z,96843.63
2019-06-08T11:50:02.961Z,96836.94
2019-06-08T11:52:38.882Z,96837.45
2019-06-08T11:55:13.178Z,96840.20
2019-06-08T11:57:44.654Z,96835.64
2019-06-08T12:00:30.896Z,96833.19
2019-06-08T12:03:02.254Z,96846.53
2019-06-08T12:05:33.645Z,96845.41
2019-06-08T12:08:06.441Z,96858.13
2019-06-08T12:10:41.162Z,96839.70
2019-06-08T12:13:17.746Z,96841.62
2019-06-08T12:15:50.040Z,96849.93
2019-06-08T12:18:23.940Z,96836.33
2019-06-08T12:20:58.387Z,96838.95
2019-06-08T12:23:30.182Z,96832.91
2019-06-08T12:26:01.766Z,96839.64
2019-06-08T12:28:34.926Z,96841.33
2019-06-08T12:31:12.073Z,96835.94
2019-06-08T12:33:41.960Z,96830.66
2019-06-08T12:36:15.572Z,96839.25
2019-06-08T12:38:48.677Z,96830.00
2019-06-08T12:41:23.307Z,96830.94
2019-06-08T12:43:58.976Z,96821.41
2019-06-08T12:46:31.092Z,96828.22
2019-06-08T12:49:02.973Z,96834.48
2019-06-08T12:51:36.986Z,96832.19
2019-06-08T12:54:12.704Z,96827.36
2019-06-08T12:56:44.997Z,96823.46
2019-06-08T12:59:22.452Z,96818.90
2019-06-08T13:02:22.022Z,96825.91
2019-06-08T13:04:57.160Z,96823.69
2019-06-08T13:07:31.330Z,96827.66
2019-06-08T13:10:04.096Z,96825.61
2019-06-08T13:12:40.918Z,96825.34
2019-06-08T13:15:14.460Z,96821.22
2019-06-08T13:17:50.590Z,96827.22
2019-06-08T13:20:22.581Z,96822.52
2019-06-08T13:22:57.545Z,96817.56
2019-06-08T13:25:39.689Z,96817.81
2019-06-08T13:28:12.245Z,96814.46
2019-06-08T13:30:58.178Z,96823.83
2019-06-08T13:33:43.734Z,96820.84
2019-06-08T13:36:19.688Z,96812.08
2019-06-08T13:38:51.387Z,96816.09
2019-06-08T13:41:29.873Z,96806.79
2019-06-08T13:44:02.367Z,96810.08
2019-06-08T13:46:52.425Z,96807.77
2019-06-08T13:49:43.982Z,96811.36
2019-06-08T13:52:34.669Z,96806.90
2019-06-08T13:55:34.681Z,96810.08
2019-06-08T13:57:50.991Z,96805.45
2019-06-08T14:00:38.575Z,96809.23
2019-06-08T14:03:13.719Z,96809.21
2019-06-08T14:05:49.490Z,96803.90
2019-06-08T14:08:40.195Z,96729.03
2019-06-08T14:11:14.903Z,96794.54
2019-06-08T14:13:48.124Z,96792.47
2019-06-08T14:16:26.521Z,96798.36
2019-06-08T14:19:04.027Z,96786.77
2019-06-08T14:21:41.767Z,96789.50
2019-06-08T14:24:14.445Z,96788.34
2019-06-08T14:26:48.492Z,96793.77
2019-06-08T14:29:22.965Z,96795.23
2019-06-08T14:31:57.804Z,96794.60
2019-06-08T14:34:31.277Z,96798.53
2019-06-08T14:37:04.802Z,96796.79
2019-06-08T14:39:38.201Z,96800.59
2019-06-08T14:42:09.441Z,96793.50
2019-06-08T14:44:41.237Z,96793.77
2019-06-08T14:47:14.529Z,96790.47
2019-06-08T14:49:48.976Z,96789.10
2019-06-08T14:52:24.163Z,96783.05
2019-06-08T14:54:58.665Z,96784.13
2019-06-08T14:57:32.622Z,96784.51
2019-06-08T15:00:09.669Z,96781.07
2019-06-08T15:02:39.471Z,96782.52
2019-06-08T15:05:11.758Z,96785.17
2019-06-08T15:07:43.338Z,96768.88
2019-06-08T15:10:18.040Z,96774.18
2019-06-08T15:12:49.489Z,96762.23
2019-06-08T15:15:23.617Z,96766.14
2019-06-08T15:17:58.214Z,96778.97
2019-06-08T15:20:32.960Z,96781.33
2019-06-08T15:23:08.133Z,96766.94
2019-06-08T15:25:38.916Z,96770.98
2019-06-08T15:28:14.498Z,96775.57
2019-06-08T15:30:46.909Z,96775.13
2019-06-08T15:33:21.513Z,96771.65
2019-06-08T15:35:54.269Z,96776.98
2019-06-08T15:38:26.049Z,96772.80
2019-06-08T15:40:58.854Z,96771.34
2019-06-08T15:43:34.442Z,96776.09
2019-06-08T15:46:04.926Z,96775.57
2019-06-08T15:48:38.173Z,96770.80
2019-06-08T15:51:10.299Z,96767.84
2019-06-08T15:53:43.208Z,96767.88
2019-06-08T15:56:18.699Z,96764.84
2019-06-08T15:58:49.908Z,96766.17
2019-06-08T16:01:29.390Z,96767.97
2019-06-08T16:04:04.022Z,96773.14
2019-06-08T16:06:36.390Z,96771.62
2019-06-08T16:09:12.382Z,96767.15
2019-06-08T16:11:46.469Z,96765.62
2019-06-08T16:14:36.520Z,96770.91
2019-06-08T16:17:07.922Z,96774.33
2019-06-08T16:19:40.578Z,96780.52
2019-06-08T16:22:14.315Z,96779.60
2019-06-08T16:24:47.099Z,96773.14
2019-06-08T16:27:20.087Z,96783.08
2019-06-08T16:29:53.230Z,96786.71
2019-06-08T16:32:25.133Z,96779.15
2019-06-08T16:34:59.167Z,96770.09
2019-06-08T16:37:33.507Z,96769.16
2019-06-08T16:40:06.746Z,96767.00
2019-06-08T16:42:41.185Z,96775.50
2019-06-08T16:45:15.378Z,96774.92
2019-06-08T16:47:49.483Z,96776.51
2019-06-08T16:50:25.079Z,96779.43
2019-06-08T16:52:59.043Z,96776.05
2019-06-08T16:55:34.005Z,96776.27
2019-06-08T16:58:07.145Z,96772.07
2019-06-08T17:00:42.261Z,96773.44
2019-06-08T17:03:17.747Z,96782.42
2019-06-08T17:05:49.337Z,96778.91
2019-06-08T17:08:21.092Z,96774.45
2019-06-08T17:10:54.275Z,96780.41
2019-06-08T17:13:26.340Z,96779.62
2019-06-08T17:15:59.279Z,96776.82
2019-06-08T17:18:32.348Z,96783.23
2019-06-08T17:21:05.749Z,96790.98
2019-06-08T17:23:38.465Z,96783.69
2019-06-08T17:26:10.325Z,96775.94
2019-06-08T17:28:42.904Z,96779.03
2019-06-08T17:31:14.215Z,96782.42
2019-06-08T17:33:46.350Z,96782.63
2019-06-08T17:36:20.441Z,96776.56
2019-06-08T17:38:52.510Z,96779.23
2019-06-08T17:41:27.361Z,96782.98
2019-06-08T17:44:00.716Z,96790.32
2019-06-08T17:46:34.526Z,96787.91
2019-06-08T17:49:08.767Z,96791.98
2019-06-08T17:51:44.406Z,96789.55
2019-06-08T17:54:15.793Z,96788.23
2019-06-08T17:56:49.523Z,96790.53
2019-06-08T17:59:23.491Z,96783.85
2019-06-08T18:01:59.578Z,96794.14
2019-06-08T18:04:33.504Z,96792.19
2019-06-08T18:07:07.550Z,96786.32
2019-06-08T18:09:42.277Z,96794.77
2019-06-08T18:12:18.859Z,96795.75
2019-06-08T18:14:51.582Z,96799.36
2019-06-08T18:17:27.835Z,96801.31
2019-06-08T18:20:02.036Z,96790.39
2019-06-08T18:22:38.683Z,96795.94
2019-06-08T18:25:09.873Z,96796.23
2019-06-08T18:28:01.793Z,96798.20
2019-06-08T18:30:20.013Z,96796.11
2019-06-08T18:32:52.713Z,96808.64
2019-06-08T18:35:27.760Z,96804.72
2019-06-08T18:37:59.779Z,96811.70
2019-06-08T18:40:32.733Z,96820.67
2019-06-08T18:43:07.588Z,96825.38
2019-06-08T18:45:42.432Z,96823.92
2019-06-08T18:48:17.589Z,96821.96
2019-06-08T18:50:51.464Z,96823.37
2019-06-08T18:53:22.670Z,96821.78
2019-06-08T18:55:57.971Z,96817.71
2019-06-08T18:58:29.892Z,96826.52
2019-06-08T19:01:03.893Z,96828.58
2019-06-08T19:03:42.292Z,96828.95
2019-06-08T19:06:12.252Z,96833.53
2019-06-08T19:08:49.208Z,96835.79
2019-06-08T19:11:20.097Z,96836.59
2019-06-08T19:13:54.234Z,96844.98
2019-06-08T19:16:29.484Z,96842.41
2019-06-08T19:19:03.030Z,96845.66
2019-06-08T19:21:37.667Z,96848.59
2019-06-08T19:24:11.858Z,96849.12
2019-06-08T19:26:45.955Z,96850.77
2019-06-08T19:29:19.396Z,96852.21
2019-06-08T19:31:53.905Z,96844.75
2019-06-08T19:34:29.050Z,96854.50
2019-06-08T19:37:00.988Z,96862.14
2019-06-08T19:39:33.979Z,96862.95
2019-06-08T19:42:07.990Z,96873.14
2019-06-08T19:44:50.556Z,96872.88
2019-06-08T19:47:17.624Z,96884.27
2019-06-08T19:49:54.455Z,96880.57
2019-06-08T19:52:24.972Z,96882.54
2019-06-08T19:54:58.148Z,96884.16
2019-06-08T19:57:30.013Z,96883.29
2019-06-08T20:00:01.982Z,96887.88
2019-06-08T20:02:36.302Z,96884.75
2019-06-08T20:05:11.029Z,96887.06
2019-06-08T20:07:44.928Z,96886.27
2019-06-08T20:10:18.242Z,96893.56
2019-06-08T20:12:51.638Z,96897.73
2019-06-08T20:15:23.424Z,96898.20
2019-06-08T20:17:57.494Z,96899.41
2019-06-08T20:20:32.261Z,96896.88
2019-06-08T20:23:18.113Z,96900.14
2019-06-08T20:25:52.065Z,96897.54
2019-06-08T20:28:28.303Z,96897.38
2019-06-08T20:31:00.715Z,96903.06
2019-06-08T20:33:34.335Z,96905.09
2019-06-08T20:36:08.342Z,96905.56
2019-06-08T20:38:43.741Z,96912.27
2019-06-08T20:41:18.276Z,96913.68
2019-06-08T20:43:53.661Z,96910.80
2019-06-08T20:46:28.673Z,96909.78
2019-06-08T20:49:02.351Z,96917.27
2019-06-08T20:51:34.310Z,96909.70
2019-06-08T20:54:10.012Z,96910.06
2019-06-08T20:56:43.020Z,96905.20
2019-06-08T20:59:29.227Z,96905.77
2019-06-08T21:01:54.338Z,96910.73
2019-06-08T21:04:27.662Z,96905.73
2019-06-08T21:07:01.393Z,96901.23
2019-06-08T21:09:36.965Z,96904.91
2019-06-08T21:12:10.495Z,96913.25
2019-06-08T21:14:45.242Z,96909.67
2019-06-08T21:17:20.456Z,96911.31
2019-06-08T21:19:55.619Z,96915.58
2019-06-08T21:22:28.734Z,96910.06
2019-06-08T21:25:01.493Z,96911.48
2019-06-08T21:27:34.384Z,96914.70
2019-06-08T21:30:19.897Z,96921.82
2019-06-08T21:32:41.587Z,96921.52
2019-06-08T21:35:18.188Z,96924.11
2019-06-08T21:37:51.462Z,96923.64
2019-06-08T21:40:28.126Z,96928.54
2019-06-08T21:43:01.634Z,96932.53
2019-06-08T21:45:34.190Z,96934.30
2019-06-08T21:48:07.717Z,96936.33
2019-06-08T21:50:41.641Z,96934.41
2019-06-08T21:53:18.087Z,96935.77
2019-06-08T21:55:50.687Z,96932.21
2019-06-08T21:58:24.108Z,96933.01
2019-06-08T22:00:59.148Z,96932.95
2019-06-08T22:03:31.845Z,96938.30
2019-06-08T22:06:07.849Z,96935.24
2019-06-08T22:08:39.388Z,96939.28
2019-06-08T22:11:14.517Z,96939.19
2019-06-08T22:13:47.692Z,96940.56
2019-06-08T22:16:22.621Z,96932.00
2019-06-08T22:18:59.796Z,96931.80
2019-06-08T22:21:31.948Z,96931.02
2019-06-08T22:24:03.827Z,96920.63
2019-06-08T22:26:36.974Z,96918.24
2019-06-08T22:29:09.999Z,96920.16
2019-06-08T22:31:43.742Z,96922.05
2019-06-08T22:34:17.440Z,96920.75
2019-06-08T22:36:52.586Z,96931.53
2019-06-08T22:39:24.691Z,96931.95
2019-06-08T22:42:01.193Z,96933.72
2019-06-08T22:44:33.333Z,96934.45
2019-06-08T22:47:08.095Z,96922.81
2019-06-08T22:49:42.618Z,96930.25
2019-06-08T22:52:18.494Z,96927.01
2019-06-08T22:54:49.855Z,96929.86
2019-06-08T22:57:21.646Z,96937.92
2019-06-08T22:59:55.773Z,96934.72
2019-06-08T23:02:27.895Z,96930.91
2019-06-08T23:05:05.723Z,96926.62
2019-06-08T23:07:39.597Z,96932.19
2019-06-08T23:10:12.775Z,96928.05
2019-06-08T23:12:47.229Z,96922.20
2019-06-08T23:15:20.238Z,96926.47
2019-06-08T23:17:52.856Z,96933.80
2019-06-08T23:20:24.816Z,96930.67
2019-06-08T23:22:58.645Z,96935.95
2019-06-08T23:25:31.827Z,96930.36
2019-06-08T23:28:09.718Z,96932.03
2019-06-08T23:30:41.220Z,96930.11
2019-06-08T23:33:14.789Z,96928.61
2019-06-08T23:36:30.534Z,96925.02
2019-06-08T23:38:22.920Z,96919.38
2019-06-08T23:40:59.386Z,96917.16
2019-06-08T23:43:31.937Z,96920.42
2019-06-08T23:46:08.147Z,96929.61
2019-06-08T23:48:42.008Z,96921.36
2019-06-08T23:51:17.911Z,96920.91
2019-06-08T23:53:52.900Z,96920.22
2019-06-08T23:56:27.577Z,96915.50
2019-06-08T23:59:03.774Z,96914.93
